M I D A S
Marine Information and Data Acquisition System
Tripno 1868 of the Zeeleeuw from 2010-04-26 10:11:46 to 2010-04-26 14:43:17
Back to CruiseResearch ActivitiesStationsMapUnderway DataData graphs

EquipmentUnitsComment
TimeDGPSUTC
LatitudeDGPSDM.mWGS84
LongitudeDGPSDM.mWGS84
TemperatureSBE03/SBE38deg celciusITS90
ConductivitySBE21S/mITS90
SalinitySBE21 Practical Salinity Units
ChlorophylAChelsea fluorimeterg/lCalibrated in Aceton
Missing or incorrect values are displayed as -999
Sea surface data collected by the RV Zeeleeuw from 2010-04-26 07:09:07 to 2010-04-26 15:02:00
Time Latitude Longitude Temperature Conductivity Salinity ChlorophylA
2010-04-26 07:10:15 51°13.683 2°55.857 18.0449 0.089093 0.428947 -1.035392
2010-04-26 07:11:15 51°13.693 2°55.766 18.0657 0.089093 0.42904 -1.000568
2010-04-26 07:12:15 51°13.696 2°55.766 17.9415 0.089093 0.429132 -1.000568
2010-04-26 07:13:15 51°13.7 2°55.759 18.0905 0.088989 0.428724 -1.000568
2010-04-26 07:14:15 51°13.748 2°55.719 17.9856 0.088989 0.428776 -1.000568
2010-04-26 07:15:15 51°13.826 2°55.643 17.9439 0.088989 0.42891 -0.965744
2010-04-26 07:16:15 51°13.903 2°55.566 17.9553 0.088989 0.428991 -1.000568
2010-04-26 07:17:13 51°13.959 2°55.508 18.0453 0.088884 0.428576 -1.035392
2010-04-26 07:18:12 51°13.996 2°55.459 17.9369 0.088884 0.428681 -1.035392
2010-04-26 07:19:11 51°14.004 2°55.453 18.01 0.088884 0.428814 -1.000568
2010-04-26 07:20:11 51°14.003 2°55.451 18.0433 0.088884 0.428913 -1.000568
2010-04-26 07:21:11 51°14.005 2°55.452 17.9661 0.08878 0.428498 -1.035392
2010-04-26 07:22:11 51°14.005 2°55.451 17.9983 0.08878 0.428591 -1.035392
2010-04-26 07:23:11 51°14.005 2°55.452 17.9989 0.08878 0.428689 -1.035392
2010-04-26 07:24:11 51°14.004 2°55.451 18.0001 0.08878 0.428782 -1.000568
2010-04-26 07:25:11 51°14.003 2°55.448 18.0043 0.088676 0.428344 -1.000568
2010-04-26 07:26:11 51°14.003 2°55.45 18.0138 0.088676 0.42842 -1.035392
2010-04-26 07:27:11 51°14.004 2°55.45 18.01 0.088676 0.428507 -1.035392
2010-04-26 07:28:11 51°14.004 2°55.45 18.0029 0.088676 0.4286 -1.035392
2010-04-26 07:29:11 51°14.004 2°55.451 18.0125 0.088676 0.428681 -1.035392
2010-04-26 07:30:11 51°14.004 2°55.451 18.0275 0.088676 0.428768 -1.000568
2010-04-26 07:31:11 51°14.004 2°55.451 18.0139 0.088572 0.42833 -1.000568
2010-04-26 07:32:11 51°14.004 2°55.451 18.0276 0.088572 0.428405 -1.000568
2010-04-26 07:33:11 51°14.004 2°55.451 18.0363 0.088572 0.428487 -1.000568
2010-04-26 07:34:12 51°14.005 2°55.452 18.0333 0.088572 0.428562 -1.035392
2010-04-26 07:35:12 51°14.005 2°55.452 18.0331 0.088572 0.428644 -1.000568
2010-04-26 07:36:11 51°14.005 2°55.452 18.0452 0.088572 0.428725 -1.000568
2010-04-26 07:37:12 51°14.005 2°55.451 18.0582 0.088468 0.428286 -1.035392
2010-04-26 07:38:11 51°14.005 2°55.452 18.0536 0.088468 0.428362 -1.000568
2010-04-26 07:39:11 51°14.004 2°55.451 18.0592 0.088468 0.428443 -1.000568
2010-04-26 07:40:11 51°14.004 2°55.452 18.0673 0.088468 0.428513 -1.000568
2010-04-26 07:41:11 51°14.004 2°55.452 18.0614 0.088468 0.428595 -1.035392
2010-04-26 07:42:11 51°14.004 2°55.452 18.0641 0.088364 0.428144 -1.000568
2010-04-26 07:43:11 51°14.004 2°55.453 18.0772 0.088364 0.428214 -1.000568
2010-04-26 07:44:11 51°14.004 2°55.453 18.0746 0.088364 0.428278 -1.035392
2010-04-26 07:45:11 51°14.004 2°55.452 18.0891 0.088364 0.428354 -1.035392
2010-04-26 07:46:12 51°14.004 2°55.452 18.0874 0.088364 0.428418 -1.000568
2010-04-26 07:47:11 51°14.004 2°55.453 18.1029 0.088364 0.428482 -1.000568
2010-04-26 07:48:11 51°14.004 2°55.452 18.098 0.08826 0.428024 -1.035392
2010-04-26 07:49:11 51°14.004 2°55.452 18.0991 0.08826 0.428089 -1.000568
2010-04-26 07:50:12 51°14.004 2°55.452 18.1136 0.08826 0.428153 -1.000568
2010-04-26 07:51:11 51°14.004 2°55.451 18.1064 0.08826 0.428229 -1.000568
2010-04-26 07:52:28 51°14.004 2°55.451 18.1313 0.08826 0.428316 -0.965744
2010-04-26 07:53:58 51°14.005 2°55.452 18.1347 0.088156 0.427888 -1.000568
2010-04-26 07:55:13 51°14.005 2°55.451 18.0892 0.088156 0.427969 -1.000568
2010-04-26 07:56:13 51°14.004 2°55.451 18.1387 0.088156 0.428039 -1.000568
2010-04-26 07:57:13 51°14.004 2°55.451 18.1402 0.088156 0.428104 -1.000568
2010-04-26 07:58:13 51°14.004 2°55.451 18.1364 0.088156 0.428168 -1.000568
2010-04-26 07:59:13 51°14.005 2°55.451 18.1478 0.088052 0.427704 -1.035392
2010-04-26 08:00:13 51°14.005 2°55.452 18.1702 0.088052 0.427768 -1.035392
2010-04-26 08:01:13 51°14.005 2°55.452 18.1238 0.088052 0.427844 -1.000568
2010-04-26 08:02:13 51°14.005 2°55.451 18.1552 0.088052 0.427914 -1.000568
2010-04-26 08:03:13 51°14.005 2°55.451 18.1593 0.087948 0.427473 -1.000568
2010-04-26 08:04:13 51°14.005 2°55.451 18.1747 0.087948 0.427549 -1.000568
2010-04-26 08:05:12 51°14.005 2°55.451 18.1779 0.087948 0.427637 -1.035392
2010-04-26 08:06:13 51°14.004 2°55.451 18.204 0.087948 0.427713 -1.000568
2010-04-26 08:07:12 51°14.004 2°55.451 18.2055 0.087948 0.427789 -1.000568
2010-04-26 08:08:13 51°14.005 2°55.451 18.1953 0.087844 0.427342 -1.035392
2010-04-26 08:09:13 51°14.005 2°55.451 18.2028 0.087844 0.427436 -1.035392
2010-04-26 08:10:13 51°14.005 2°55.451 18.2004 0.087844 0.427512 -1.035392
2010-04-26 08:11:13 51°14.004 2°55.451 18.2139 0.087844 0.427594 -1.035392
2010-04-26 08:12:12 51°14.004 2°55.452 18.2175 0.087844 0.42767 -1.000568
2010-04-26 08:13:13 51°14.004 2°55.452 18.2326 0.08774 0.427252 -1.035392
2010-04-26 08:14:13 51°14.004 2°55.452 18.2317 0.08774 0.427351 -1.000568
2010-04-26 08:15:13 51°14.004 2°55.452 18.2356 0.08774 0.427421 -1.000568
2010-04-26 08:16:13 51°14.004 2°55.452 18.2566 0.08774 0.427468 -1.000568
2010-04-26 08:17:13 51°14.004 2°55.452 18.2417 0.087636 0.427056 -1.000568
2010-04-26 08:18:13 51°14.004 2°55.452 18.2481 0.087636 0.427132 -1.000568
2010-04-26 08:19:13 51°14.004 2°55.451 18.2592 0.087636 0.427214 -1.035392
2010-04-26 08:20:13 51°14.004 2°55.452 18.2816 0.087636 0.427314 -1.035392
2010-04-26 08:21:13 51°14.005 2°55.451 18.281 0.087636 0.427407 -1.000568
2010-04-26 08:22:13 51°14.004 2°55.451 18.2984 0.087636 0.427496 -1.035392
2010-04-26 08:23:12 51°14.004 2°55.451 18.2817 0.087532 0.427053 -1.000568
2010-04-26 08:24:13 51°14.004 2°55.45 18.3051 0.087532 0.427135 -1.035392
2010-04-26 08:25:12 51°14.005 2°55.45 18.3286 0.087532 0.427229 -1.000568
2010-04-26 08:26:13 51°14.005 2°55.45 18.3342 0.087532 0.427317 -1.000568
2010-04-26 08:27:12 51°14.005 2°55.45 18.3207 0.087532 0.427405 -1.035392
2010-04-26 08:28:13 51°14.005 2°55.45 18.3606 0.087532 0.427488 -1.000568
2010-04-26 08:29:13 51°14.005 2°55.45 18.3441 0.087428 0.427045 -0.965744
2010-04-26 08:30:13 51°14.005 2°55.451 18.3571 0.087428 0.427133 -1.000568
2010-04-26 08:31:13 51°14.005 2°55.45 18.3747 0.087428 0.427215 -1.000568
2010-04-26 08:32:12 51°14.005 2°55.45 18.3776 0.087428 0.427304 -1.000568
2010-04-26 08:33:13 51°14.005 2°55.45 18.3893 0.087428 0.427392 -1.035392
2010-04-26 08:34:12 51°14.006 2°55.451 18.3924 0.087428 0.42748 -1.000568
2010-04-26 08:35:12 51°14.005 2°55.45 18.3832 0.087428 0.427563 -1.035392
2010-04-26 08:36:12 51°14.004 2°55.45 18.4046 0.087428 0.427657 -1.000568
2010-04-26 08:37:12 51°14.005 2°55.45 18.42 0.087324 0.427219 -1.000568
2010-04-26 08:38:12 51°14.005 2°55.451 18.4355 0.087324 0.427308 -1.035392
2010-04-26 08:39:12 51°14.005 2°55.451 18.4257 0.087324 0.427402 -1.035392
2010-04-26 08:40:12 51°14.004 2°55.451 18.4499 0.087324 0.427485 -1.035392
2010-04-26 08:41:12 51°14.004 2°55.451 18.4442 0.087324 0.427562 -1.035392
2010-04-26 08:42:12 51°14.005 2°55.451 18.4466 0.087324 0.427656 -1.000568
2010-04-26 08:43:12 51°14.005 2°55.451 18.4526 0.087324 0.427739 -1.035392
2010-04-26 08:44:12 51°14.004 2°55.451 18.4597 0.087324 0.427833 -1.000568
2010-04-26 08:45:12 51°14.004 2°55.451 18.4689 0.087324 0.427928 -1.000568
2010-04-26 08:46:12 51°14.004 2°55.451 18.4737 0.08722 0.427495 -1.000568
2010-04-26 08:47:12 51°14.005 2°55.451 18.4826 0.087324 0.428118 -1.035392
2010-04-26 08:48:12 51°14.005 2°55.451 18.4929 0.08722 0.427685 -1.035392
2010-04-26 08:49:12 51°14.005 2°55.452 18.5027 0.08722 0.427785 -1.000568
2010-04-26 08:50:12 51°14.004 2°55.452 18.5117 0.08722 0.427886 -1.000568
2010-04-26 08:51:12 51°14.003 2°55.452 18.5214 0.08722 0.427981 -1.035392
2010-04-26 08:52:12 51°14.003 2°55.452 18.5177 0.08722 0.428082 -1.035392
2010-04-26 08:53:12 51°14.004 2°55.452 18.5294 0.08722 0.428183 -1.000568
2010-04-26 08:54:12 51°14.004 2°55.452 18.5308 0.08722 0.428266 -1.035392
2010-04-26 08:55:12 51°14.004 2°55.452 18.5418 0.08722 0.428373 -1.000568
2010-04-26 08:56:12 51°14.006 2°55.453 18.5424 0.08722 0.428456 -1.000568
2010-04-26 08:57:12 51°14.003 2°55.452 18.5498 0.08722 0.428557 -1.000568
2010-04-26 08:58:12 51°14.003 2°55.452 18.5304 0.08722 0.428658 -1.000568
2010-04-26 08:59:12 51°14.003 2°55.452 18.5699 0.08722 0.42876 -1.000568
2010-04-26 09:00:12 51°14.001 2°55.451 18.57 0.08722 0.428861 -1.035392
2010-04-26 09:01:12 51°14.002 2°55.451 18.5801 0.087116 0.428427 -1.000568
2010-04-26 09:02:12 51°14.004 2°55.451 18.5935 0.087116 0.428534 -1.035392
2010-04-26 09:03:12 51°14.003 2°55.45 18.5877 0.087116 0.428636 -1.035392
2010-04-26 09:04:12 51°14.009 2°55.451 18.6016 0.087116 0.428731 -1.035392
2010-04-26 09:05:12 51°13.998 2°55.45 18.5968 0.087116 0.428832 -1.035392
2010-04-26 09:06:12 51°14.004 2°55.451 18.6136 0.087116 0.428934 -1.000568
2010-04-26 09:07:13 51°14.005 2°55.45 18.6182 0.087116 0.429029 -1.035392
2010-04-26 09:08:12 51°14.005 2°55.451 18.6359 0.087116 0.429125 -1.035392
2010-04-26 09:09:12 51°14.006 2°55.451 18.6335 0.087116 0.429221 -1.000568
2010-04-26 09:10:12 51°14.006 2°55.451 18.6407 0.087116 0.42931 -1.000568
2010-04-26 09:11:12 51°14.006 2°55.451 18.6461 0.087116 0.429388 -1.000568
2010-04-26 09:12:12 51°14.005 2°55.451 18.6431 0.087116 0.429478 -1.000568
2010-04-26 09:13:12 51°14.01 2°55.452 18.6532 0.087116 0.429562 -1.035392
2010-04-26 09:14:12 51°14.01 2°55.453 18.657 0.087116 0.429652 -0.965744
2010-04-26 09:15:12 51°14.009 2°55.453 18.6707 0.087012 0.429211 -1.070216
2010-04-26 09:16:12 51°14.008 2°55.452 18.6701 0.087012 0.429301 -1.000568
2010-04-26 09:17:12 51°14.006 2°55.452 18.6721 0.087012 0.429385 -1.000568
2010-04-26 09:18:12 51°14.005 2°55.452 18.691 0.087012 0.429481 -1.035392
2010-04-26 09:19:12 51°14.005 2°55.452 18.7028 0.087012 0.429571 -1.035392
2010-04-26 09:20:12 51°14.004 2°55.452 18.7099 0.087012 0.429667 -1.000568
2010-04-26 09:21:12 51°14.004 2°55.452 18.7297 0.087012 0.429769 -1.000568
2010-04-26 09:22:12 51°14.009 2°55.453 18.7332 0.087012 0.429871 -1.035392
2010-04-26 09:23:12 51°14.005 2°55.452 18.7294 0.087012 0.429961 -1.000568
2010-04-26 09:24:12 51°14.009 2°55.453 18.741 0.087012 0.430058 -1.000568
2010-04-26 09:25:12 51°14.002 2°55.452 18.7312 0.086908 0.42961 -1.035392
2010-04-26 09:26:12 51°14.004 2°55.452 18.7389 0.086908 0.429706 -1.000568
2010-04-26 09:27:12 51°14.004 2°55.452 18.7535 0.086908 0.429785 -1.000568
2010-04-26 09:28:12 51°14.003 2°55.452 18.756 0.086908 0.429875 -1.000568
2010-04-26 09:29:12 51°14.002 2°55.452 18.7644 0.086908 0.429959 -1.000568
2010-04-26 09:30:12 51°14.001 2°55.451 18.7627 0.086908 0.430032 -1.000568
2010-04-26 09:31:12 51°14.007 2°55.452 18.7438 0.086908 0.430122 -0.965744
2010-04-26 09:32:12 51°14.005 2°55.451 18.7969 0.086804 0.429674 -1.035392
2010-04-26 09:33:12 51°14.004 2°55.452 18.795 0.086804 0.429764 -1.000568
2010-04-26 09:34:12 51°14.003 2°55.452 18.8002 0.086804 0.429855 -1.000568
2010-04-26 09:35:12 51°14 2°55.455 18.7838 0.086804 0.429933 -1.035392
2010-04-26 09:36:12 51°14.034 2°55.452 18.8062 0.086804 0.430018 -1.035392
2010-04-26 09:37:12 51°14.172 2°55.385 18.7354 0.086804 0.430114 -1.035392
2010-04-26 09:38:12 51°14.345 2°55.22 18.7612 0.0867 0.429653 -1.035392
2010-04-26 09:39:12 51°14.55 2°55.065 18.7917 0.0867 0.429744 -1.000568
2010-04-26 09:40:12 51°14.75 2°54.889 18.7073 0.0867 0.429853 -1.000568
2010-04-26 09:41:12 51°14.93 2°54.679 18.6831 0.0867 0.429943 -1.000568
2010-04-26 09:42:12 51°15.086 2°54.442 18.6465 0.0867 0.43007 -1.035392
2010-04-26 09:43:12 51°15.319 2°54.424 18.6224 0.086595 0.429694 -1.000568
2010-04-26 09:44:13 51°15.51 2°54.693 18.6218 0.086595 0.429778 -1.035392
2010-04-26 09:45:13 51°15.636 2°55.054 18.6263 0.086596 0.42993 -1.035392
2010-04-26 09:46:12 51°15.784 2°55.387 18.6031 0.086596 0.430099 -1.000568
2010-04-26 09:47:12 51°15.936 2°55.727 18.6272 0.086491 0.429747 -1.000568
2010-04-26 09:48:12 51°16.093 2°56.07 18.6632 0.086491 0.429741 -1.000568
2010-04-26 09:49:13 51°16.233 2°56.441 18.6703 0.086491 0.429856 -1.000568
2010-04-26 09:50:12 51°16.364 2°56.807 18.674 0.086387 0.429442 -0.965744
2010-04-26 09:51:12 51°16.498 2°57.169 18.6855 0.086387 0.429545 -1.035392
2010-04-26 09:52:12 51°16.629 2°57.529 18.6872 0.086387 0.429648 -1.000568
2010-04-26 09:53:12 51°16.761 2°57.894 18.6965 0.086387 0.429751 -1.035392
2010-04-26 09:54:12 51°16.894 2°58.263 18.7278 0.086387 0.429855 -1.000568
2010-04-26 09:55:12 51°17.028 2°58.624 18.7289 0.086283 0.429434 -1.035392
2010-04-26 09:56:12 51°17.163 2°58.991 18.7425 0.086283 0.42955 -1.000568
2010-04-26 09:57:12 51°17.299 2°59.357 18.7316 0.086283 0.429659 -1.000568
2010-04-26 09:58:12 51°17.434 2°59.724 18.752 0.086179 0.429251 -1.000568
2010-04-26 09:59:12 51°17.571 3°0.094 18.7726 0.086179 0.429372 -1.035392
2010-04-26 10:00:12 51°17.708 3°0.466 18.7735 0.086179 0.429518 -1.000568
2010-04-26 10:01:12 51°17.845 3°0.837 18.7711 0.086179 0.429615 -1.000568
2010-04-26 10:02:12 51°17.986 3°1.206 18.7959 0.086075 0.429201 -1.035392
2010-04-26 10:03:12 51°18.156 3°1.542 18.7795 0.086075 0.429304 -1.000568
2010-04-26 10:04:12 51°18.337 3°1.86 18.7904 0.086075 0.429438 -1.035392
2010-04-26 10:05:12 51°18.527 3°2.162 18.8081 0.085971 0.429017 -1.000568
2010-04-26 10:06:11 51°18.715 3°2.447 18.8162 0.085971 0.429151 -1.000568
2010-04-26 10:07:12 51°18.902 3°2.748 18.8136 0.085971 0.429211 -1.000568
2010-04-26 10:08:12 51°19.087 3°3.042 18.8281 0.085971 0.429297 -1.000568
2010-04-26 10:09:12 51°19.282 3°3.325 18.8484 0.085971 0.429486 -1.000568
2010-04-26 10:10:12 51°19.484 3°3.606 18.8421 0.085867 0.429101 -0.965744
2010-04-26 10:11:12 51°19.683 3°3.874 18.854 0.085867 0.42932 -0.965744
2010-04-26 10:12:12 51°19.879 3°4.15 18.8737 0.085867 0.429442 -1.035392
2010-04-26 10:13:12 51°20.074 3°4.428 18.8645 0.085867 0.42954 -1.000568
2010-04-26 10:14:13 51°20.273 3°4.712 18.8831 0.085763 0.429161 -1.000568
2010-04-26 10:15:12 51°20.464 3°4.985 18.8896 0.085763 0.429234 -0.965744
2010-04-26 10:16:12 51°20.659 3°5.258 18.8972 0.085763 0.429369 -1.000568
2010-04-26 10:17:12 51°20.853 3°5.534 18.9077 0.085763 0.429491 -1.000568
2010-04-26 10:18:12 51°21.049 3°5.814 18.9159 0.085763 0.42965 -1.000568
2010-04-26 10:19:12 51°21.247 3°6.105 18.9166 0.085763 0.429742 -1.035392
2010-04-26 10:20:12 51°21.445 3°6.399 18.923 0.085659 0.429344 -1.035392
2010-04-26 10:21:13 51°21.645 3°6.692 18.9299 0.085659 0.42946 -0.965744
2010-04-26 10:22:12 51°21.83 3°6.983 18.9357 0.085659 0.429583 -0.965744
2010-04-26 10:23:13 51°21.983 3°7.334 18.9448 0.085659 0.429798 -1.035392
2010-04-26 10:24:12 51°22.126 3°7.687 18.9533 0.085659 0.429915 -1.000568
2010-04-26 10:25:13 51°22.276 3°8.049 18.9527 0.085659 0.430007 -1.000568
2010-04-26 10:26:12 51°22.424 3°8.397 18.9624 0.085555 0.429596 -1.000568
2010-04-26 10:27:12 51°22.572 3°8.755 18.9637 0.085555 0.429719 -0.965744
2010-04-26 10:28:13 51°22.655 3°9.173 18.9769 0.085555 0.429873 -1.035392
2010-04-26 10:29:12 51°22.679 3°9.586 18.9807 0.085555 0.429983 -0.965744
2010-04-26 10:30:13 51°22.698 3°10.016 18.9915 0.085555 0.430101 -1.000568
2010-04-26 10:31:12 51°22.711 3°10.43 18.9895 0.085555 0.43023 -1.000568
2010-04-26 10:32:13 51°22.725 3°10.74 19.0081 0.085451 0.429806 -1.035392
2010-04-26 10:33:12 51°22.739 3°10.955 18.9959 0.085451 0.429917 -1.000568
2010-04-26 10:34:12 51°22.723 3°11.118 19.0089 0.085451 0.430053 -1.000568
2010-04-26 10:35:12 51°22.659 3°11.222 19.0133 0.085451 0.430139 -1.000568
2010-04-26 10:36:12 51°22.575 3°11.28 19.0137 0.085451 0.430226 -0.965744
2010-04-26 10:37:13 51°22.56 3°11.237 19.0263 0.085451 0.430362 -1.035392
2010-04-26 10:38:12 51°22.59 3°11.262 19.0321 0.085347 0.429943 -1.035392
2010-04-26 10:39:13 51°22.62 3°11.311 19.0341 0.085347 0.430067 -1.000568
2010-04-26 10:40:12 51°22.644 3°11.367 19.0388 0.085347 0.430215 -1.000568
2010-04-26 10:41:13 51°22.667 3°11.43 19.0527 0.085347 0.430351 -1.035392
2010-04-26 10:42:12 51°22.685 3°11.496 19.0522 0.085347 0.430475 -1.000568
2010-04-26 10:43:12 51°22.702 3°11.566 19.0611 0.085243 0.430081 -1.000568
2010-04-26 10:44:12 51°22.718 3°11.64 19.0648 0.085243 0.430217 -1.000568
2010-04-26 10:45:13 51°22.733 3°11.715 19.0879 0.085243 0.430366 -1.000568
2010-04-26 10:46:13 51°22.746 3°11.789 19.0867 0.085243 0.430522 -1.035392
2010-04-26 10:47:12 51°22.759 3°11.862 19.0885 0.085139 0.430127 -1.000568
2010-04-26 10:48:13 51°22.773 3°11.939 19.0866 0.085139 0.430288 -1.000568
2010-04-26 10:49:12 51°22.786 3°12.011 19.0846 0.085139 0.430456 -1.035392
2010-04-26 10:50:12 51°22.798 3°12.086 19.0924 0.085139 0.430605 -1.000568
2010-04-26 10:51:12 51°22.831 3°12.165 19.0922 0.085035 0.430223 -1.035392
2010-04-26 10:52:12 51°22.862 3°12.306 19.1049 0.085035 0.430409 -1.000568
2010-04-26 10:53:12 51°22.826 3°12.436 19.1246 0.085035 0.43054 -1.000568
2010-04-26 10:54:12 51°22.758 3°12.5 19.1348 0.084931 0.430145 -1.035392
2010-04-26 10:55:12 51°22.69 3°12.491 19.1485 0.084931 0.430301 -1.035392
2010-04-26 10:56:12 51°22.657 3°12.395 19.1559 0.084827 0.42993 -1.000568
2010-04-26 10:57:12 51°22.621 3°12.252 19.1654 0.084827 0.430086 -1.035392
2010-04-26 10:58:12 51°22.584 3°12.098 19.174 0.084827 0.43026 -1.035392
2010-04-26 10:59:12 51°22.546 3°11.942 19.1845 0.084723 0.429864 -1.035392
2010-04-26 11:00:12 51°22.509 3°11.783 19.2002 0.084723 0.430033 -0.965744
2010-04-26 11:01:08 51°22.473 3°11.633 19.2061 0.084723 0.430208 -1.000568
2010-04-26 11:02:14 51°22.462 3°11.506 19.2178 0.084619 0.429898 -1.035392
2010-04-26 11:04:02 51°22.527 3°11.509 19.2322 0.084515 0.429702 -0.965744
2010-04-26 11:05:02 51°22.555 3°11.548 19.2385 0.084515 0.429877 -1.000568
2010-04-26 11:06:02 51°22.579 3°11.598 19.2506 0.084515 0.430027 -1.000568
2010-04-26 11:07:02 51°22.599 3°11.654 19.2564 0.084411 0.429624 -1.035392
2010-04-26 11:08:03 51°22.617 3°11.716 19.2631 0.084411 0.429761 -1.000568
2010-04-26 11:09:02 51°22.633 3°11.777 19.2723 0.084411 0.429906 -1.000568
2010-04-26 11:10:02 51°22.648 3°11.839 19.2751 0.084307 0.429489 -1.000568
2010-04-26 11:11:02 51°22.663 3°11.903 19.285 0.084307 0.429633 -1.035392
2010-04-26 11:12:02 51°22.678 3°11.966 19.2951 0.084307 0.42979 -1.035392
2010-04-26 11:13:02 51°22.693 3°12.03 19.3021 0.084202 0.429398 -1.000568
2010-04-26 11:14:02 51°22.708 3°12.094 19.3107 0.084202 0.429581 -1.035392
2010-04-26 11:15:02 51°22.723 3°12.156 19.319 0.084202 0.429769 -1.035392
2010-04-26 11:16:02 51°22.737 3°12.219 19.3304 0.084098 0.42939 -1.035392
2010-04-26 11:17:03 51°22.751 3°12.284 19.3361 0.084098 0.429553 -1.000568
2010-04-26 11:18:02 51°22.764 3°12.347 19.3455 0.084098 0.429736 -1.000568
2010-04-26 11:19:02 51°22.777 3°12.411 19.3575 0.083994 0.429343 -1.035392
2010-04-26 11:20:02 51°22.789 3°12.475 19.3651 0.083994 0.429526 -1.035392
2010-04-26 11:21:02 51°22.801 3°12.54 19.3748 0.083994 0.429721 -1.035392
2010-04-26 11:22:02 51°22.813 3°12.604 19.3827 0.08389 0.429354 -1.035392
2010-04-26 11:23:02 51°22.831 3°12.665 19.3959 0.08389 0.429549 -1.035392
2010-04-26 11:24:03 51°22.866 3°12.7 19.4052 0.08389 0.429682 -1.000568
2010-04-26 11:25:02 51°22.888 3°12.706 19.4155 0.08389 0.429802 -1.035392
2010-04-26 11:26:04 51°22.886 3°12.71 19.4277 0.083786 0.429402 -1.035392
2010-04-26 11:27:02 51°22.866 3°12.701 19.4391 0.083786 0.429586 -1.035392
2010-04-26 11:28:02 51°22.851 3°12.663 19.4507 0.083682 0.429261 -1.035392
2010-04-26 11:29:02 51°22.834 3°12.615 19.4613 0.083682 0.429439 -1.000568
2010-04-26 11:30:02 51°22.814 3°12.563 19.4757 0.083682 0.429629 -0.965744
2010-04-26 11:31:02 51°22.796 3°12.506 19.4879 0.083682 0.429857 -1.035392
2010-04-26 11:32:02 51°22.776 3°12.449 19.4965 0.083578 0.429533 -1.000568
2010-04-26 11:33:02 51°22.756 3°12.392 19.5072 0.083578 0.429761 -1.035392
2010-04-26 11:34:02 51°22.738 3°12.333 19.52 0.083578 0.42999 -1.000568
2010-04-26 11:35:03 51°22.72 3°12.273 19.5305 0.083578 0.430219 -1.000568
2010-04-26 11:36:03 51°22.702 3°12.211 19.5419 0.083474 0.429888 -1.000568
2010-04-26 11:37:03 51°22.682 3°12.148 19.5534 0.083474 0.430092 -1.035392
2010-04-26 11:38:03 51°22.654 3°12.058 19.5676 0.083474 0.43029 -1.000568
2010-04-26 11:39:03 51°22.59 3°11.807 19.582 0.08337 0.429939 -1.035392
2010-04-26 11:40:03 51°22.515 3°11.51 19.5957 0.08337 0.430144 -1.035392
2010-04-26 11:41:03 51°22.439 3°11.217 19.6064 0.08337 0.430368 -1.035392
2010-04-26 11:42:03 51°22.365 3°10.925 19.6187 0.083266 0.430023 -1.000568
2010-04-26 11:43:04 51°22.29 3°10.624 19.6317 0.083266 0.43026 -1.000568
2010-04-26 11:44:03 51°22.218 3°10.329 19.6451 0.083266 0.43049 -1.000568
2010-04-26 11:45:03 51°22.145 3°10.03 19.655 0.083162 0.430171 -1.000568
2010-04-26 11:46:03 51°22.07 3°9.734 19.6692 0.083162 0.430415 -1.000568
2010-04-26 11:47:03 51°21.98 3°9.457 19.6793 0.083058 0.430134 -1.035392
2010-04-26 11:48:03 51°21.848 3°9.222 19.701 0.083058 0.430359 -1.000568
2010-04-26 11:49:03 51°21.712 3°8.987 19.709 0.082954 0.43009 -1.000568
2010-04-26 11:50:04 51°21.575 3°8.742 19.7237 0.082954 0.430393 -1.000568
2010-04-26 11:51:03 51°21.444 3°8.503 19.7379 0.08285 0.43015 -1.000568
2010-04-26 11:52:02 51°21.312 3°8.258 19.7512 0.08285 0.430473 -1.000568
2010-04-26 11:53:04 51°21.176 3°8.004 19.7672 0.082746 0.430242 -1.000568
2010-04-26 11:54:02 51°21.049 3°7.766 19.7802 0.082746 0.430579 -1.000568
2010-04-26 11:55:02 51°20.916 3°7.519 19.7931 0.082642 0.430361 -1.000568
2010-04-26 11:56:02 51°20.783 3°7.27 19.8074 0.082642 0.430699 -1.000568
2010-04-26 11:57:02 51°20.65 3°7.021 19.8217 0.082538 0.430488 -1.035392
2010-04-26 11:58:02 51°20.516 3°6.77 19.8338 0.082434 0.43027 -1.000568
2010-04-26 11:59:02 51°20.383 3°6.526 19.8489 0.08233 0.430065 -1.035392
2010-04-26 12:00:02 51°20.249 3°6.281 19.8612 0.08233 0.43041 -1.035392
2010-04-26 12:01:04 51°20.111 3°6.027 19.8732 0.082226 0.430186 -1.000568
2010-04-26 12:02:03 51°19.98 3°5.784 19.8894 0.082226 0.430512 -1.035392
2010-04-26 12:03:03 51°19.844 3°5.532 19.9015 0.082122 0.430281 -1.035392
2010-04-26 12:04:03 51°19.708 3°5.28 19.915 0.082018 0.430037 -1.035392
2010-04-26 12:05:02 51°19.576 3°5.033 19.9313 0.082018 0.43037 -1.000568
2010-04-26 12:06:03 51°19.439 3°4.776 19.9407 0.081914 0.430139 -1.000568
2010-04-26 12:07:03 51°19.305 3°4.524 19.9538 0.081914 0.430427 -1.000568
2010-04-26 12:08:03 51°19.172 3°4.276 19.9657 0.08181 0.430156 -1.000568
2010-04-26 12:09:02 51°19.041 3°4.036 19.9789 0.081705 0.429898 -1.000568
2010-04-26 12:10:03 51°18.907 3°3.79 19.9945 0.081705 0.43022 -1.035392
2010-04-26 12:11:03 51°18.788 3°3.535 20.005 0.081601 0.429955 -1.000568
2010-04-26 12:12:02 51°18.694 3°3.262 20.0178 0.081601 0.430304 -0.965744
2010-04-26 12:13:04 51°18.595 3°2.974 20.0299 0.081497 0.430046 -1.035392
2010-04-26 12:14:02 51°18.502 3°2.705 20.0412 0.081393 0.429794 -1.000568
2010-04-26 12:15:02 51°18.406 3°2.426 20.0557 0.081393 0.430124 -0.965744
2010-04-26 12:16:02 51°18.309 3°2.146 20.0663 0.081289 0.429872 -1.000568
2010-04-26 12:17:02 51°18.212 3°1.865 20.0779 0.081185 0.429606 -1.035392
2010-04-26 12:18:03 51°18.114 3°1.581 20.089 0.081185 0.429877 -1.000568
2010-04-26 12:19:02 51°18.019 3°1.307 20.1014 0.081081 0.429592 -1.035392
2010-04-26 12:20:02 51°17.924 3°1.028 20.1126 0.080977 0.429306 -0.965744
2010-04-26 12:21:02 51°17.827 3°0.749 20.1249 0.080977 0.429577 -1.000568
2010-04-26 12:22:02 51°17.73 3°0.468 20.1366 0.080873 0.429304 -1.000568
2010-04-26 12:23:02 51°17.634 3°0.192 20.1469 0.080873 0.429603 -1.000568
2010-04-26 12:24:02 51°17.538 2°59.913 20.1579 0.080769 0.42935 -1.000568
2010-04-26 12:25:03 51°17.415 2°59.655 20.1695 0.080665 0.429056 -1.000568
2010-04-26 12:26:03 51°17.265 2°59.433 20.184 0.080665 0.429336 -1.000568
2010-04-26 12:27:02 51°17.12 2°59.21 20.1978 0.080561 0.429075 -1.000568
2010-04-26 12:28:02 51°17.023 2°58.923 20.1877 0.080561 0.429395 -1.035392
2010-04-26 12:29:02 51°16.946 2°58.616 20.1892 0.080457 0.429122 -1.000568
2010-04-26 12:30:02 51°16.866 2°58.311 20.1907 0.080457 0.429402 -1.035392
2010-04-26 12:31:02 51°16.776 2°58.014 20.1911 0.080353 0.429101 -1.000568
2010-04-26 12:32:02 51°16.67 2°57.732 20.1929 0.080353 0.429349 -1.000568
2010-04-26 12:33:02 51°16.56 2°57.452 20.1946 0.080249 0.429048 -1.000568
2010-04-26 12:34:02 51°16.449 2°57.174 20.1956 0.080249 0.429336 -1.000568
2010-04-26 12:35:02 51°16.329 2°56.906 20.1928 0.080145 0.429048 -1.000568
2010-04-26 12:36:03 51°16.204 2°56.637 20.1999 0.080145 0.42933 -0.965744
2010-04-26 12:37:03 51°16.069 2°56.389 20.1949 0.080041 0.429028 -1.000568
2010-04-26 12:38:03 51°15.936 2°56.141 20.1968 0.080041 0.429304 -1.000568
2010-04-26 12:39:03 51°15.804 2°55.892 20.1958 0.080041 0.429586 -0.965744
2010-04-26 12:40:03 51°15.672 2°55.643 20.1966 0.079937 0.429285 -0.965744
2010-04-26 12:41:03 51°15.543 2°55.392 20.1949 0.079937 0.429534 -1.000568
2010-04-26 12:42:03 51°15.399 2°55.162 20.1917 0.079833 0.429225 -0.965744
2010-04-26 12:43:03 51°15.239 2°54.96 20.2049 0.079833 0.429495 -1.000568
2010-04-26 12:44:02 51°15.062 2°54.805 20.2027 0.079833 0.429752 -1.000568
2010-04-26 12:45:03 51°14.888 2°54.623 20.2022 0.079833 0.430037 -1.035392
2010-04-26 12:46:03 51°14.718 2°54.438 20.1944 0.079729 0.429768 -1.000568
2010-04-26 12:47:03 51°14.575 2°54.209 20.1976 0.079729 0.430101 -1.000568
2010-04-26 12:48:03 51°14.464 2°53.933 20.1984 0.079625 0.429839 -1.000568
2010-04-26 12:49:03 51°14.334 2°53.678 20.1965 0.079625 0.430125 -1.000568
2010-04-26 12:50:03 51°14.19 2°53.444 20.1955 0.079625 0.43039 -1.000568
2010-04-26 12:51:04 51°14.056 2°53.186 20.1996 0.079521 0.430115 -0.965744
2010-04-26 12:52:03 51°13.94 2°52.92 20.2038 0.079521 0.430401 -0.965744
2010-04-26 12:53:03 51°13.847 2°52.623 20.2013 0.079417 0.430119 -1.000568
2010-04-26 12:54:02 51°13.754 2°52.332 20.2021 0.079417 0.430385 -1.000568
2010-04-26 12:55:02 51°13.652 2°52.042 20.2055 0.079417 0.430659 -1.000568
2010-04-26 12:56:02 51°13.534 2°51.769 20.2033 0.079313 0.430315 -0.965744
2010-04-26 12:57:02 51°13.428 2°51.53 20.2046 0.079313 0.430616 -0.965744
2010-04-26 12:58:03 51°13.419 2°51.402 20.1987 0.079313 0.430925 -0.965744
2010-04-26 12:59:03 51°13.451 2°51.387 20.2015 0.079208 0.430608 -1.000568
2010-04-26 13:00:03 51°13.477 2°51.413 20.2037 0.079209 0.430869 -1.000568
2010-04-26 13:01:03 51°13.499 2°51.441 20.2 0.079209 0.431048 -1.000568
2010-04-26 13:02:03 51°13.519 2°51.47 20.1997 0.079104 0.430641 -1.035392
2010-04-26 13:03:03 51°13.536 2°51.499 20.2033 0.079104 0.4308 -1.000568
2010-04-26 13:04:03 51°13.552 2°51.53 20.2043 0.079 0.430365 -1.000568
2010-04-26 13:05:03 51°13.566 2°51.562 20.2047 0.079 0.430537 -1.035392
2010-04-26 13:06:03 51°13.578 2°51.594 20.2058 0.079 0.430682 -1.000568
2010-04-26 13:07:04 51°13.59 2°51.627 20.2096 0.079 0.430827 -1.000568
2010-04-26 13:08:03 51°13.6 2°51.659 20.2079 0.078896 0.43037 -0.965744
2010-04-26 13:09:03 51°13.618 2°51.692 20.2058 0.078896 0.430501 -1.000568
2010-04-26 13:10:03 51°13.662 2°51.764 20.2085 0.078896 0.430667 -1.000568
2010-04-26 13:11:03 51°13.642 2°51.879 20.2117 0.078896 0.430813 -1.000568
2010-04-26 13:12:03 51°13.55 2°51.974 20.2088 0.078792 0.430321 -1.035392
2010-04-26 13:13:03 51°13.424 2°52.087 20.2112 0.078792 0.430452 -1.000568
2010-04-26 13:14:03 51°13.306 2°52.163 20.2136 0.078792 0.430598 -0.965744
2010-04-26 13:15:03 51°13.239 2°52.159 20.212 0.078792 0.430722 -1.000568
2010-04-26 13:16:04 51°13.193 2°52.129 20.2096 0.078688 0.430251 -1.000568
2010-04-26 13:17:03 51°13.161 2°52.084 20.2098 0.078688 0.430397 -1.000568
2010-04-26 13:18:03 51°13.132 2°52.016 20.2111 0.078688 0.430521 -1.000568
2010-04-26 13:19:03 51°13.11 2°51.933 20.2101 0.078688 0.430681 -1.000568
2010-04-26 13:20:03 51°13.081 2°51.855 20.211 0.078584 0.43023 -1.000568
2010-04-26 13:21:03 51°13.05 2°51.78 20.2129 0.078584 0.430368 -0.965744
2010-04-26 13:22:03 51°13.024 2°51.703 20.2148 0.078584 0.430528 -1.000568
2010-04-26 13:23:03 51°12.998 2°51.623 20.2147 0.07848 0.430118 -1.000568
2010-04-26 13:24:04 51°12.97 2°51.542 20.2168 0.07848 0.430271 -0.965744
2010-04-26 13:25:03 51°12.944 2°51.463 20.2174 0.07848 0.430424 -1.000568
2010-04-26 13:26:03 51°12.916 2°51.386 20.2181 0.07848 0.430577 -0.965744
2010-04-26 13:27:02 51°12.889 2°51.311 20.2191 0.07848 0.430744 -1.000568
2010-04-26 13:28:03 51°12.861 2°51.232 20.2216 0.078376 0.430313 -1.000568
2010-04-26 13:29:03 51°12.834 2°51.154 20.2235 0.078376 0.430473 -1.000568
2010-04-26 13:30:03 51°12.803 2°51.079 20.2248 0.078272 0.430034 -1.000568
2010-04-26 13:31:03 51°12.773 2°51.003 20.2265 0.078272 0.430181 -1.000568
2010-04-26 13:32:03 51°12.744 2°50.923 20.2292 0.078272 0.430341 -1.000568
2010-04-26 13:33:04 51°12.714 2°50.842 20.2301 0.078168 0.429902 -1.000568
2010-04-26 13:34:02 51°12.685 2°50.766 20.2312 0.078168 0.430056 -1.000568
2010-04-26 13:35:03 51°12.653 2°50.688 20.2319 0.078168 0.430216 -1.000568
2010-04-26 13:36:03 51°12.622 2°50.61 20.2335 0.078168 0.43037 -1.000568
2010-04-26 13:37:03 51°12.593 2°50.529 20.2346 0.078168 0.430524 -1.000568
2010-04-26 13:38:04 51°12.564 2°50.443 20.2369 0.078064 0.430084 -1.000568
2010-04-26 13:39:03 51°12.537 2°50.36 20.2384 0.078064 0.430252 -1.000568
2010-04-26 13:40:03 51°12.509 2°50.275 20.2391 0.078064 0.430413 -1.035392
2010-04-26 13:41:03 51°12.48 2°50.192 20.2387 0.078064 0.430574 -0.965744
2010-04-26 13:42:04 51°12.447 2°50.109 20.2409 0.07796 0.430141 -1.000568
2010-04-26 13:43:02 51°12.408 2°50.039 20.2422 0.07796 0.430281 -0.965744
2010-04-26 13:44:02 51°12.371 2°49.964 20.2428 0.07796 0.430449 -1.000568
2010-04-26 13:45:03 51°12.338 2°49.883 20.2451 0.07796 0.430618 -1.000568
2010-04-26 13:46:03 51°12.306 2°49.802 20.2467 0.07796 0.430772 -1.000568
2010-04-26 13:47:03 51°12.294 2°49.709 20.2493 0.07796 0.430948 -0.965744
2010-04-26 13:48:03 51°12.304 2°49.612 20.2505 0.077856 0.430514 -1.035392
2010-04-26 13:49:03 51°12.331 2°49.523 20.2523 0.077856 0.430676 -0.965744
2010-04-26 13:50:03 51°12.374 2°49.448 20.2524 0.077856 0.430824 -1.000568
2010-04-26 13:51:03 51°12.432 2°49.397 20.2562 0.077856 0.430958 -1.000568
2010-04-26 13:52:03 51°12.491 2°49.383 20.2552 0.077856 0.431099 -1.000568
2010-04-26 13:53:04 51°12.552 2°49.411 20.2559 0.077856 0.431233 -0.965744
2010-04-26 13:54:04 51°12.6 2°49.459 20.2573 0.077856 0.43136 -1.000568
2010-04-26 13:55:03 51°12.632 2°49.505 20.2585 0.077856 0.43148 -1.035392
2010-04-26 13:56:03 51°12.661 2°49.539 20.2597 0.077856 0.431565 -1.000568
2010-04-26 13:57:03 51°12.684 2°49.567 20.2601 0.077856 0.43165 -1.000568
2010-04-26 13:58:03 51°12.704 2°49.589 20.2559 0.077752 0.431152 -0.965744
2010-04-26 13:59:02 51°12.72 2°49.607 20.2634 0.077752 0.431251 -1.000568
2010-04-26 14:00:03 51°12.734 2°49.623 20.2575 0.077752 0.431364 -0.965744
2010-04-26 14:01:03 51°12.745 2°49.635 20.2635 0.077752 0.431498 -1.000568
2010-04-26 14:02:02 51°12.754 2°49.646 20.2599 0.077752 0.431619 -1.000568
2010-04-26 14:03:03 51°12.761 2°49.657 20.2607 0.077752 0.431746 -1.000568
2010-04-26 14:04:02 51°12.767 2°49.666 20.265 0.077752 0.431881 -1.000568
2010-04-26 14:05:02 51°12.772 2°49.677 20.2631 0.077752 0.431995 -1.000568
2010-04-26 14:06:03 51°12.778 2°49.688 20.2706 0.077752 0.432101 -1.000568
2010-04-26 14:07:02 51°12.783 2°49.7 20.2708 0.077752 0.432215 -1.035392
2010-04-26 14:08:02 51°12.787 2°49.712 20.2784 0.077752 0.432315 -1.000568
2010-04-26 14:09:02 51°12.79 2°49.723 20.2801 0.077752 0.432407 -1.000568
2010-04-26 14:10:03 51°12.793 2°49.735 20.283 0.077752 0.432514 -1.000568
2010-04-26 14:11:03 51°12.798 2°49.749 20.2872 0.077752 0.432621 -1.000568
2010-04-26 14:12:02 51°12.824 2°49.768 20.2837 0.077752 0.432714 -0.965744
2010-04-26 14:13:03 51°12.866 2°49.804 20.2915 0.077752 0.432813 -0.965744
2010-04-26 14:14:03 51°12.897 2°49.875 20.2969 0.077752 0.432928 -1.000568
2010-04-26 14:15:02 51°12.923 2°49.961 20.293 0.077648 0.432434 -1.000568
2010-04-26 14:16:03 51°12.955 2°50.053 20.3034 0.077648 0.432534 -1.000568
2010-04-26 14:17:03 51°12.99 2°50.143 20.3105 0.077648 0.432613 -1.000568
2010-04-26 14:18:02 51°13.025 2°50.233 20.3072 0.077648 0.432713 -1.000568
2010-04-26 14:19:02 51°13.059 2°50.324 20.3181 0.077648 0.432813 -1.000568
2010-04-26 14:20:02 51°13.092 2°50.416 20.3189 0.077648 0.43292 -1.000568
2010-04-26 14:21:04 51°13.128 2°50.51 20.3192 0.077648 0.43302 -1.000568
2010-04-26 14:22:02 51°13.162 2°50.597 20.3256 0.077648 0.433113 -1.035392
2010-04-26 14:23:02 51°13.197 2°50.69 20.3309 0.077648 0.433206 -1.000568
2010-04-26 14:24:02 51°13.234 2°50.792 20.3415 0.077648 0.433299 -0.965744
2010-04-26 14:25:02 51°13.273 2°50.899 20.3445 0.077544 0.432791 -1.035392
2010-04-26 14:26:02 51°13.314 2°51.006 20.3487 0.077648 0.433493 -0.965744
2010-04-26 14:27:02 51°13.355 2°51.113 20.3487 0.077544 0.432984 -0.965744
2010-04-26 14:28:02 51°13.394 2°51.221 20.3622 0.077544 0.433078 -1.000568
2010-04-26 14:29:02 51°13.436 2°51.328 20.3637 0.077544 0.433171 -1.000568
2010-04-26 14:30:01 51°13.476 2°51.433 20.3726 0.077544 0.433271 -1.000568
2010-04-26 14:31:02 51°13.517 2°51.543 20.3837 0.077544 0.433357 -1.000568
2010-04-26 14:32:02 51°13.559 2°51.651 20.3849 0.077544 0.433458 -1.000568
2010-04-26 14:33:02 51°13.6 2°51.759 20.0591 0.077544 0.433544 -0.965744
2010-04-26 14:34:02 51°13.641 2°51.87 20.1513 0.07744 0.433042 -1.000568
2010-04-26 14:35:02 51°13.681 2°51.981 20.1586 0.07744 0.433128 -1.000568
2010-04-26 14:36:03 51°13.734 2°52.124 20.1782 0.07744 0.433222 -1.000568
2010-04-26 14:37:02 51°13.791 2°52.281 20.1929 0.07744 0.433322 -1.035392
2010-04-26 14:38:02 51°13.852 2°52.443 20.1865 0.07744 0.433402 -0.965744
2010-04-26 14:39:01 51°13.912 2°52.604 20.1867 0.07744 0.433495 -0.965744
2010-04-26 14:40:02 51°13.975 2°52.772 20.1969 0.07744 0.433589 -1.000568
2010-04-26 14:41:04 51°14.04 2°52.944 20.2052 0.07744 0.433668 -0.965744
2010-04-26 14:42:01 51°14.1 2°53.103 20.2197 0.07744 0.433754 -1.000568
2010-04-26 14:43:02 51°14.164 2°53.269 20.2261 0.07744 0.433848 -1.000568
2010-04-26 14:44:02 51°14.225 2°53.43 20.231 0.077336 0.433338 -1.035392
2010-04-26 14:45:02 51°14.284 2°53.593 20.2344 0.077336 0.433417 -1.000568
2010-04-26 14:46:02 51°14.346 2°53.754 20.2359 0.077336 0.433504 -1.035392
2010-04-26 14:47:03 51°14.408 2°53.916 20.2411 0.077336 0.433583 -0.965744
2010-04-26 14:48:02 51°14.466 2°54.069 20.2457 0.077336 0.43367 -0.965744
2010-04-26 14:49:02 51°14.525 2°54.221 20.248 0.077336 0.433756 -1.000568
2010-04-26 14:50:02 51°14.581 2°54.37 20.2536 0.077336 0.433836 -1.000568
2010-04-26 14:51:02 51°14.63 2°54.521 20.2958 0.077336 0.433908 -1.000568
2010-04-26 14:52:02 51°14.617 2°54.758 20.2852 0.077336 0.43398 -1.035392
2010-04-26 14:53:02 51°14.529 2°54.99 20.292 0.077336 0.43406 -0.965744
2010-04-26 14:54:02 51°14.386 2°55.164 20.2726 0.077232 0.433549 -1.000568
2010-04-26 14:55:02 51°14.234 2°55.32 20.2865 0.077232 0.433621 -1.000568
2010-04-26 14:56:04 51°14.076 2°55.446 20.2848 0.077232 0.433715 -1.000568
2010-04-26 14:57:03 51°13.967 2°55.535 20.2896 0.077232 0.433788 -0.965744
2010-04-26 14:58:02 51°13.879 2°55.599 20.2905 0.077232 0.433874 -1.000568
2010-04-26 14:59:04 51°13.8 2°55.658 20.2937 0.077232 0.433954 -0.965744
2010-04-26 15:00:04 51°13.751 2°55.722 20.2999 0.077232 0.434012 -1.000568
2010-04-26 15:01:05 51°13.706 2°55.815 20.3034 0.077232 0.434077 -1.035392